sensor_id;sensor_type;location;lat;lon;timestamp;P1;durP1;ratioP1;P2;durP2;ratioP2
11604;SDS011;5858;43.076;25.626;2023-04-09T00:01:37;21.13;;;14.90;;
11604;SDS011;5858;43.076;25.626;2023-04-09T00:04:04;19.60;;;14.07;;
11604;SDS011;5858;43.076;25.626;2023-04-09T00:06:31;19.67;;;14.00;;
11604;SDS011;5858;43.076;25.626;2023-04-09T00:08:58;18.23;;;13.43;;
11604;SDS011;5858;43.076;25.626;2023-04-09T00:11:27;16.27;;;13.60;;
11604;SDS011;5858;43.076;25.626;2023-04-09T00:13:54;16.87;;;13.07;;
11604;SDS011;5858;43.076;25.626;2023-04-09T00:16:21;19.17;;;13.10;;
11604;SDS011;5858;43.076;25.626;2023-04-09T00:18:48;17.20;;;13.00;;
11604;SDS011;5858;43.076;25.626;2023-04-09T00:21:15;14.93;;;12.63;;
11604;SDS011;5858;43.076;25.626;2023-04-09T00:23:42;18.27;;;13.60;;
11604;SDS011;5858;43.076;25.626;2023-04-09T00:26:09;17.23;;;13.13;;
11604;SDS011;5858;43.076;25.626;2023-04-09T00:28:38;16.20;;;12.70;;
11604;SDS011;5858;43.076;25.626;2023-04-09T00:31:05;16.90;;;12.80;;
11604;SDS011;5858;43.076;25.626;2023-04-09T00:33:32;18.17;;;12.63;;
11604;SDS011;5858;43.076;25.626;2023-04-09T00:35:59;18.10;;;13.10;;
11604;SDS011;5858;43.076;25.626;2023-04-09T00:38:26;16.60;;;12.83;;
11604;SDS011;5858;43.076;25.626;2023-04-09T00:40:56;17.60;;;13.17;;
11604;SDS011;5858;43.076;25.626;2023-04-09T00:43:24;15.97;;;11.67;;
11604;SDS011;5858;43.076;25.626;2023-04-09T00:45:53;16.43;;;12.73;;
11604;SDS011;5858;43.076;25.626;2023-04-09T00:48:20;14.63;;;12.40;;
11604;SDS011;5858;43.076;25.626;2023-04-09T00:50:47;16.53;;;12.73;;
11604;SDS011;5858;43.076;25.626;2023-04-09T00:53:15;16.03;;;12.40;;
11604;SDS011;5858;43.076;25.626;2023-04-09T00:55:42;19.53;;;13.33;;
11604;SDS011;5858;43.076;25.626;2023-04-09T00:58:10;17.90;;;13.07;;
11604;SDS011;5858;43.076;25.626;2023-04-09T01:00:37;16.23;;;12.47;;
11604;SDS011;5858;43.076;25.626;2023-04-09T01:03:06;15.20;;;11.50;;
11604;SDS011;5858;43.076;25.626;2023-04-09T01:05:36;15.90;;;12.13;;
11604;SDS011;5858;43.076;25.626;2023-04-09T01:08:11;15.83;;;12.20;;
11604;SDS011;5858;43.076;25.626;2023-04-09T01:10:46;16.23;;;11.50;;
11604;SDS011;5858;43.076;25.626;2023-04-09T01:13:19;15.63;;;10.73;;
11604;SDS011;5858;43.076;25.626;2023-04-09T01:15:56;13.33;;;10.87;;
11604;SDS011;5858;43.076;25.626;2023-04-09T01:18:28;13.07;;;9.87;;
11604;SDS011;5858;43.076;25.626;2023-04-09T01:21:01;12.40;;;9.20;;
11604;SDS011;5858;43.076;25.626;2023-04-09T01:23:41;12.63;;;10.40;;
11604;SDS011;5858;43.076;25.626;2023-04-09T01:26:16;13.07;;;9.97;;
11604;SDS011;5858;43.076;25.626;2023-04-09T01:29:01;13.67;;;9.43;;
11604;SDS011;5858;43.076;25.626;2023-04-09T01:31:31;13.43;;;10.30;;
11604;SDS011;5858;43.076;25.626;2023-04-09T01:34:02;13.53;;;10.73;;
11604;SDS011;5858;43.076;25.626;2023-04-09T01:36:30;12.53;;;9.87;;
11604;SDS011;5858;43.076;25.626;2023-04-09T01:38:59;14.30;;;10.47;;
11604;SDS011;5858;43.076;25.626;2023-04-09T01:41:27;12.10;;;9.87;;
11604;SDS011;5858;43.076;25.626;2023-04-09T01:43:57;12.63;;;9.70;;
11604;SDS011;5858;43.076;25.626;2023-04-09T01:46:28;12.93;;;10.20;;
11604;SDS011;5858;43.076;25.626;2023-04-09T01:48:55;13.40;;;10.50;;
11604;SDS011;5858;43.076;25.626;2023-04-09T01:51:22;15.47;;;10.47;;
11604;SDS011;5858;43.076;25.626;2023-04-09T01:53:51;13.57;;;10.73;;
11604;SDS011;5858;43.076;25.626;2023-04-09T01:56:18;13.20;;;10.73;;
11604;SDS011;5858;43.076;25.626;2023-04-09T01:58:45;14.90;;;11.67;;
11604;SDS011;5858;43.076;25.626;2023-04-09T02:01:13;14.93;;;11.60;;
11604;SDS011;5858;43.076;25.626;2023-04-09T02:03:47;15.73;;;12.13;;
11604;SDS011;5858;43.076;25.626;2023-04-09T02:06:20;19.43;;;12.63;;
11604;SDS011;5858;43.076;25.626;2023-04-09T02:08:52;21.63;;;11.50;;
11604;SDS011;5858;43.076;25.626;2023-04-09T02:11:23;19.53;;;11.93;;
11604;SDS011;5858;43.076;25.626;2023-04-09T02:13:55;13.43;;;10.17;;
11604;SDS011;5858;43.076;25.626;2023-04-09T02:16:23;15.90;;;10.27;;
11604;SDS011;5858;43.076;25.626;2023-04-09T02:18:53;12.63;;;10.17;;
11604;SDS011;5858;43.076;25.626;2023-04-09T02:21:21;13.50;;;10.37;;
11604;SDS011;5858;43.076;25.626;2023-04-09T02:23:48;14.30;;;10.27;;
11604;SDS011;5858;43.076;25.626;2023-04-09T02:26:15;12.97;;;10.57;;
11604;SDS011;5858;43.076;25.626;2023-04-09T02:28:42;15.03;;;10.53;;
11604;SDS011;5858;43.076;25.626;2023-04-09T02:31:09;13.77;;;10.80;;
11604;SDS011;5858;43.076;25.626;2023-04-09T02:33:36;14.07;;;10.60;;
11604;SDS011;5858;43.076;25.626;2023-04-09T02:36:05;12.57;;;10.20;;
11604;SDS011;5858;43.076;25.626;2023-04-09T02:38:32;14.00;;;10.30;;
11604;SDS011;5858;43.076;25.626;2023-04-09T02:40:59;13.63;;;10.83;;
11604;SDS011;5858;43.076;25.626;2023-04-09T02:43:26;13.90;;;10.60;;
11604;SDS011;5858;43.076;25.626;2023-04-09T02:45:54;17.13;;;12.63;;
11604;SDS011;5858;43.076;25.626;2023-04-09T02:48:21;21.90;;;13.70;;
11604;SDS011;5858;43.076;25.626;2023-04-09T02:50:48;18.33;;;14.20;;
11604;SDS011;5858;43.076;25.626;2023-04-09T02:53:16;21.10;;;14.50;;
11604;SDS011;5858;43.076;25.626;2023-04-09T02:55:45;19.20;;;14.40;;
11604;SDS011;5858;43.076;25.626;2023-04-09T02:58:12;17.63;;;13.03;;
11604;SDS011;5858;43.076;25.626;2023-04-09T03:00:40;16.60;;;13.47;;
11604;SDS011;5858;43.076;25.626;2023-04-09T03:03:07;16.57;;;12.63;;
11604;SDS011;5858;43.076;25.626;2023-04-09T03:05:33;15.60;;;13.63;;
11604;SDS011;5858;43.076;25.626;2023-04-09T03:08:01;16.97;;;13.60;;
11604;SDS011;5858;43.076;25.626;2023-04-09T03:10:29;18.20;;;13.43;;
11604;SDS011;5858;43.076;25.626;2023-04-09T03:12:56;14.83;;;12.53;;
11604;SDS011;5858;43.076;25.626;2023-04-09T03:15:23;20.07;;;13.97;;
11604;SDS011;5858;43.076;25.626;2023-04-09T03:17:50;17.33;;;13.00;;
11604;SDS011;5858;43.076;25.626;2023-04-09T03:20:17;17.90;;;13.97;;
11604;SDS011;5858;43.076;25.626;2023-04-09T03:22:44;16.53;;;13.57;;
11604;SDS011;5858;43.076;25.626;2023-04-09T03:25:11;16.47;;;13.40;;
11604;SDS011;5858;43.076;25.626;2023-04-09T03:27:41;15.37;;;12.40;;
11604;SDS011;5858;43.076;25.626;2023-04-09T03:30:08;19.97;;;13.77;;
11604;SDS011;5858;43.076;25.626;2023-04-09T03:32:35;15.33;;;12.93;;
11604;SDS011;5858;43.076;25.626;2023-04-09T03:35:02;18.37;;;13.27;;
11604;SDS011;5858;43.076;25.626;2023-04-09T03:37:30;20.47;;;12.53;;
11604;SDS011;5858;43.076;25.626;2023-04-09T03:39:57;21.53;;;13.70;;
11604;SDS011;5858;43.076;25.626;2023-04-09T03:42:27;17.67;;;12.47;;
11604;SDS011;5858;43.076;25.626;2023-04-09T03:44:55;19.27;;;11.80;;
11604;SDS011;5858;43.076;25.626;2023-04-09T03:47:22;13.47;;;9.03;;
11604;SDS011;5858;43.076;25.626;2023-04-09T03:49:49;19.17;;;11.13;;
11604;SDS011;5858;43.076;25.626;2023-04-09T03:52:16;18.63;;;11.53;;
11604;SDS011;5858;43.076;25.626;2023-04-09T03:54:43;15.67;;;11.57;;
11604;SDS011;5858;43.076;25.626;2023-04-09T03:57:10;17.87;;;12.10;;
11604;SDS011;5858;43.076;25.626;2023-04-09T03:59:37;16.73;;;12.27;;
11604;SDS011;5858;43.076;25.626;2023-04-09T04:02:05;14.73;;;11.50;;
11604;SDS011;5858;43.076;25.626;2023-04-09T04:04:32;15.27;;;11.50;;
11604;SDS011;5858;43.076;25.626;2023-04-09T04:06:59;16.43;;;12.23;;
11604;SDS011;5858;43.076;25.626;2023-04-09T04:09:28;18.43;;;13.83;;
11604;SDS011;5858;43.076;25.626;2023-04-09T04:11:55;19.97;;;13.77;;
11604;SDS011;5858;43.076;25.626;2023-04-09T04:14:22;15.10;;;12.50;;
11604;SDS011;5858;43.076;25.626;2023-04-09T04:16:52;16.17;;;12.40;;
11604;SDS011;5858;43.076;25.626;2023-04-09T04:19:21;16.63;;;11.77;;
11604;SDS011;5858;43.076;25.626;2023-04-09T04:21:48;14.60;;;12.43;;
11604;SDS011;5858;43.076;25.626;2023-04-09T04:24:15;14.97;;;12.80;;
11604;SDS011;5858;43.076;25.626;2023-04-09T04:26:42;15.17;;;12.77;;
11604;SDS011;5858;43.076;25.626;2023-04-09T04:29:09;16.43;;;12.57;;
11604;SDS011;5858;43.076;25.626;2023-04-09T04:31:36;15.43;;;13.00;;
11604;SDS011;5858;43.076;25.626;2023-04-09T04:34:03;15.83;;;13.00;;
11604;SDS011;5858;43.076;25.626;2023-04-09T04:36:31;18.23;;;13.23;;
11604;SDS011;5858;43.076;25.626;2023-04-09T04:38:58;17.97;;;12.87;;
11604;SDS011;5858;43.076;25.626;2023-04-09T04:41:25;16.53;;;13.27;;
11604;SDS011;5858;43.076;25.626;2023-04-09T04:43:53;19.53;;;13.90;;
11604;SDS011;5858;43.076;25.626;2023-04-09T04:46:21;19.27;;;13.37;;
11604;SDS011;5858;43.076;25.626;2023-04-09T04:48:48;16.17;;;12.87;;
11604;SDS011;5858;43.076;25.626;2023-04-09T04:51:15;16.83;;;14.10;;
11604;SDS011;5858;43.076;25.626;2023-04-09T04:53:43;22.57;;;14.67;;
11604;SDS011;5858;43.076;25.626;2023-04-09T04:56:11;18.30;;;14.10;;
11604;SDS011;5858;43.076;25.626;2023-04-09T04:58:39;18.17;;;14.53;;
11604;SDS011;5858;43.076;25.626;2023-04-09T05:01:07;21.90;;;14.93;;
11604;SDS011;5858;43.076;25.626;2023-04-09T05:03:33;23.77;;;17.17;;
11604;SDS011;5858;43.076;25.626;2023-04-09T05:06:00;20.87;;;16.40;;
11604;SDS011;5858;43.076;25.626;2023-04-09T05:08:28;18.47;;;15.47;;
11604;SDS011;5858;43.076;25.626;2023-04-09T05:10:56;21.87;;;15.10;;
11604;SDS011;5858;43.076;25.626;2023-04-09T05:13:23;18.00;;;14.57;;
11604;SDS011;5858;43.076;25.626;2023-04-09T05:15:50;17.97;;;13.93;;
11604;SDS011;5858;43.076;25.626;2023-04-09T05:18:17;18.70;;;14.80;;
11604;SDS011;5858;43.076;25.626;2023-04-09T05:20:44;18.00;;;14.50;;
11604;SDS011;5858;43.076;25.626;2023-04-09T05:23:11;19.30;;;16.17;;
11604;SDS011;5858;43.076;25.626;2023-04-09T05:25:38;17.90;;;12.93;;
11604;SDS011;5858;43.076;25.626;2023-04-09T05:28:06;13.03;;;10.50;;
11604;SDS011;5858;43.076;25.626;2023-04-09T05:30:35;14.47;;;8.57;;
11604;SDS011;5858;43.076;25.626;2023-04-09T05:33:02;11.67;;;8.73;;
11604;SDS011;5858;43.076;25.626;2023-04-09T05:35:30;14.30;;;9.93;;
11604;SDS011;5858;43.076;25.626;2023-04-09T05:37:57;10.70;;;8.77;;
11604;SDS011;5858;43.076;25.626;2023-04-09T05:40:24;11.50;;;9.30;;
11604;SDS011;5858;43.076;25.626;2023-04-09T05:42:52;12.43;;;9.97;;
11604;SDS011;5858;43.076;25.626;2023-04-09T05:45:20;12.93;;;11.23;;
11604;SDS011;5858;43.076;25.626;2023-04-09T05:47:47;11.67;;;10.23;;
11604;SDS011;5858;43.076;25.626;2023-04-09T05:50:15;12.90;;;11.40;;
11604;SDS011;5858;43.076;25.626;2023-04-09T05:52:42;13.40;;;10.83;;
11604;SDS011;5858;43.076;25.626;2023-04-09T05:55:09;13.50;;;10.37;;
11604;SDS011;5858;43.076;25.626;2023-04-09T05:57:36;11.43;;;10.27;;
11604;SDS011;5858;43.076;25.626;2023-04-09T06:00:04;11.77;;;10.33;;
11604;SDS011;5858;43.076;25.626;2023-04-09T06:02:33;13.40;;;11.93;;
11604;SDS011;5858;43.076;25.626;2023-04-09T06:05:02;11.77;;;10.50;;
11604;SDS011;5858;43.076;25.626;2023-04-09T06:07:30;13.40;;;10.40;;
11604;SDS011;5858;43.076;25.626;2023-04-09T06:09:57;13.47;;;10.43;;
11604;SDS011;5858;43.076;25.626;2023-04-09T06:12:24;15.73;;;10.73;;
11604;SDS011;5858;43.076;25.626;2023-04-09T06:14:51;18.23;;;10.17;;
11604;SDS011;5858;43.076;25.626;2023-04-09T06:17:18;10.73;;;9.63;;
11604;SDS011;5858;43.076;25.626;2023-04-09T06:19:46;13.57;;;10.10;;
11604;SDS011;5858;43.076;25.626;2023-04-09T06:22:13;12.90;;;10.13;;
11604;SDS011;5858;43.076;25.626;2023-04-09T06:24:40;11.10;;;10.00;;
11604;SDS011;5858;43.076;25.626;2023-04-09T06:27:07;12.17;;;10.43;;
11604;SDS011;5858;43.076;25.626;2023-04-09T06:29:34;11.53;;;10.27;;
11604;SDS011;5858;43.076;25.626;2023-04-09T06:32:01;13.97;;;11.23;;
11604;SDS011;5858;43.076;25.626;2023-04-09T06:34:28;13.87;;;11.77;;
11604;SDS011;5858;43.076;25.626;2023-04-09T06:36:56;13.63;;;12.23;;
11604;SDS011;5858;43.076;25.626;2023-04-09T06:39:23;12.90;;;11.10;;
11604;SDS011;5858;43.076;25.626;2023-04-09T06:41:50;59.97;;;45.53;;
11604;SDS011;5858;43.076;25.626;2023-04-09T06:44:17;16.40;;;13.60;;
11604;SDS011;5858;43.076;25.626;2023-04-09T06:46:45;15.40;;;11.63;;
11604;SDS011;5858;43.076;25.626;2023-04-09T06:49:15;14.43;;;11.47;;
11604;SDS011;5858;43.076;25.626;2023-04-09T06:51:42;14.43;;;12.43;;
11604;SDS011;5858;43.076;25.626;2023-04-09T06:54:10;16.53;;;12.27;;
11604;SDS011;5858;43.076;25.626;2023-04-09T06:56:37;13.80;;;11.80;;
11604;SDS011;5858;43.076;25.626;2023-04-09T06:59:04;13.90;;;11.23;;
11604;SDS011;5858;43.076;25.626;2023-04-09T07:01:31;12.57;;;10.50;;
11604;SDS011;5858;43.076;25.626;2023-04-09T07:03:59;15.50;;;11.40;;
11604;SDS011;5858;43.076;25.626;2023-04-09T07:06:26;14.10;;;9.77;;
11604;SDS011;5858;43.076;25.626;2023-04-09T07:08:53;14.57;;;11.10;;
11604;SDS011;5858;43.076;25.626;2023-04-09T07:11:22;13.10;;;11.07;;
11604;SDS011;5858;43.076;25.626;2023-04-09T07:13:49;12.40;;;10.50;;
11604;SDS011;5858;43.076;25.626;2023-04-09T07:16:16;12.03;;;10.07;;
11604;SDS011;5858;43.076;25.626;2023-04-09T07:18:45;12.77;;;10.23;;
11604;SDS011;5858;43.076;25.626;2023-04-09T07:21:12;14.57;;;12.07;;
11604;SDS011;5858;43.076;25.626;2023-04-09T07:23:41;11.43;;;10.00;;
11604;SDS011;5858;43.076;25.626;2023-04-09T07:26:08;13.77;;;10.87;;
11604;SDS011;5858;43.076;25.626;2023-04-09T07:28:37;15.07;;;11.00;;
11604;SDS011;5858;43.076;25.626;2023-04-09T07:31:04;13.60;;;11.93;;
11604;SDS011;5858;43.076;25.626;2023-04-09T07:33:31;11.47;;;9.97;;
11604;SDS011;5858;43.076;25.626;2023-04-09T07:35:58;12.13;;;9.73;;
11604;SDS011;5858;43.076;25.626;2023-04-09T07:38:28;13.23;;;9.97;;
11604;SDS011;5858;43.076;25.626;2023-04-09T07:40:57;12.80;;;9.53;;
11604;SDS011;5858;43.076;25.626;2023-04-09T07:43:25;13.13;;;9.80;;
11604;SDS011;5858;43.076;25.626;2023-04-09T07:45:53;12.20;;;9.50;;
11604;SDS011;5858;43.076;25.626;2023-04-09T07:48:20;12.23;;;9.40;;
11604;SDS011;5858;43.076;25.626;2023-04-09T07:50:48;12.00;;;8.63;;
11604;SDS011;5858;43.076;25.626;2023-04-09T07:53:15;11.23;;;9.07;;
11604;SDS011;5858;43.076;25.626;2023-04-09T07:55:42;11.13;;;9.43;;
11604;SDS011;5858;43.076;25.626;2023-04-09T07:58:11;12.93;;;9.70;;
11604;SDS011;5858;43.076;25.626;2023-04-09T08:00:38;10.43;;;9.33;;
11604;SDS011;5858;43.076;25.626;2023-04-09T08:03:07;11.50;;;8.27;;
11604;SDS011;5858;43.076;25.626;2023-04-09T08:05:34;11.20;;;8.13;;
11604;SDS011;5858;43.076;25.626;2023-04-09T08:08:02;8.80;;;7.90;;
11604;SDS011;5858;43.076;25.626;2023-04-09T08:10:30;7.37;;;6.40;;
11604;SDS011;5858;43.076;25.626;2023-04-09T08:12:57;5.77;;;5.17;;
11604;SDS011;5858;43.076;25.626;2023-04-09T08:15:24;4.87;;;4.40;;
11604;SDS011;5858;43.076;25.626;2023-04-09T08:17:51;5.20;;;4.53;;
11604;SDS011;5858;43.076;25.626;2023-04-09T08:20:20;5.73;;;5.13;;
11604;SDS011;5858;43.076;25.626;2023-04-09T08:22:47;5.53;;;5.03;;
11604;SDS011;5858;43.076;25.626;2023-04-09T08:25:14;6.10;;;5.27;;
11604;SDS011;5858;43.076;25.626;2023-04-09T08:27:41;5.73;;;5.10;;
11604;SDS011;5858;43.076;25.626;2023-04-09T08:30:08;6.70;;;5.67;;
11604;SDS011;5858;43.076;25.626;2023-04-09T08:32:38;7.27;;;6.50;;
11604;SDS011;5858;43.076;25.626;2023-04-09T08:35:06;6.40;;;5.63;;
11604;SDS011;5858;43.076;25.626;2023-04-09T08:37:36;9.70;;;6.13;;
11604;SDS011;5858;43.076;25.626;2023-04-09T08:40:04;6.90;;;6.17;;
11604;SDS011;5858;43.076;25.626;2023-04-09T08:42:32;6.70;;;6.00;;
11604;SDS011;5858;43.076;25.626;2023-04-09T08:45:02;8.80;;;5.77;;
11604;SDS011;5858;43.076;25.626;2023-04-09T08:47:35;6.50;;;5.77;;
11604;SDS011;5858;43.076;25.626;2023-04-09T08:50:03;6.90;;;5.83;;
11604;SDS011;5858;43.076;25.626;2023-04-09T08:52:31;6.27;;;5.40;;
11604;SDS011;5858;43.076;25.626;2023-04-09T08:55:00;7.10;;;5.77;;
11604;SDS011;5858;43.076;25.626;2023-04-09T08:57:27;5.47;;;4.90;;
11604;SDS011;5858;43.076;25.626;2023-04-09T08:59:54;4.80;;;4.20;;
11604;SDS011;5858;43.076;25.626;2023-04-09T09:02:22;4.47;;;3.80;;
11604;SDS011;5858;43.076;25.626;2023-04-09T09:04:50;5.00;;;3.87;;
11604;SDS011;5858;43.076;25.626;2023-04-09T09:07:19;6.80;;;3.50;;
11604;SDS011;5858;43.076;25.626;2023-04-09T09:09:49;3.40;;;2.83;;
11604;SDS011;5858;43.076;25.626;2023-04-09T09:12:35;2.93;;;2.70;;
11604;SDS011;5858;43.076;25.626;2023-04-09T09:15:04;3.43;;;3.13;;
11604;SDS011;5858;43.076;25.626;2023-04-09T09:17:33;4.57;;;3.77;;
11604;SDS011;5858;43.076;25.626;2023-04-09T09:20:18;3.40;;;3.10;;
11604;SDS011;5858;43.076;25.626;2023-04-09T09:22:49;3.83;;;3.53;;
11604;SDS011;5858;43.076;25.626;2023-04-09T09:25:21;3.63;;;3.33;;
11604;SDS011;5858;43.076;25.626;2023-04-09T09:27:51;3.00;;;2.80;;
11604;SDS011;5858;43.076;25.626;2023-04-09T09:30:22;3.30;;;3.00;;
11604;SDS011;5858;43.076;25.626;2023-04-09T09:32:50;4.03;;;3.13;;
11604;SDS011;5858;43.076;25.626;2023-04-09T09:35:18;2.60;;;2.37;;
11604;SDS011;5858;43.076;25.626;2023-04-09T09:37:46;3.23;;;3.03;;
11604;SDS011;5858;43.076;25.626;2023-04-09T09:40:25;3.47;;;3.17;;
11604;SDS011;5858;43.076;25.626;2023-04-09T09:43:05;3.83;;;3.07;;
11604;SDS011;5858;43.076;25.626;2023-04-09T09:45:32;5.10;;;3.50;;
11604;SDS011;5858;43.076;25.626;2023-04-09T09:47:59;3.60;;;3.10;;
11604;SDS011;5858;43.076;25.626;2023-04-09T09:50:28;3.27;;;2.87;;
11604;SDS011;5858;43.076;25.626;2023-04-09T09:52:57;3.87;;;3.47;;
11604;SDS011;5858;43.076;25.626;2023-04-09T09:55:29;3.03;;;2.73;;
11604;SDS011;5858;43.076;25.626;2023-04-09T09:57:59;4.00;;;3.30;;
11604;SDS011;5858;43.076;25.626;2023-04-09T10:00:29;3.80;;;2.97;;
11604;SDS011;5858;43.076;25.626;2023-04-09T10:02:58;3.30;;;3.00;;
11604;SDS011;5858;43.076;25.626;2023-04-09T10:05:33;3.10;;;2.80;;
11604;SDS011;5858;43.076;25.626;2023-04-09T10:08:01;3.07;;;2.77;;
11604;SDS011;5858;43.076;25.626;2023-04-09T10:10:29;2.97;;;2.77;;
11604;SDS011;5858;43.076;25.626;2023-04-09T10:12:56;5.13;;;3.93;;
11604;SDS011;5858;43.076;25.626;2023-04-09T10:15:26;3.10;;;2.80;;
11604;SDS011;5858;43.076;25.626;2023-04-09T10:17:55;2.60;;;2.40;;
11604;SDS011;5858;43.076;25.626;2023-04-09T10:20:25;2.78;;;2.58;;
11604;SDS011;5858;43.076;25.626;2023-04-09T10:23:00;3.23;;;2.93;;
11604;SDS011;5858;43.076;25.626;2023-04-09T10:25:31;3.47;;;2.72;;
11604;SDS011;5858;43.076;25.626;2023-04-09T10:28:00;4.40;;;2.83;;
11604;SDS011;5858;43.076;25.626;2023-04-09T10:30:30;3.55;;;2.55;;
11604;SDS011;5858;43.076;25.626;2023-04-09T10:33:07;3.42;;;3.13;;
11604;SDS011;5858;43.076;25.626;2023-04-09T10:35:36;3.55;;;3.25;;
11604;SDS011;5858;43.076;25.626;2023-04-09T10:38:05;3.70;;;3.25;;
11604;SDS011;5858;43.076;25.626;2023-04-09T10:40:34;3.72;;;3.42;;
11604;SDS011;5858;43.076;25.626;2023-04-09T10:43:06;3.35;;;2.97;;
11604;SDS011;5858;43.076;25.626;2023-04-09T10:45:41;3.00;;;2.80;;
11604;SDS011;5858;43.076;25.626;2023-04-09T10:48:11;3.40;;;3.10;;
11604;SDS011;5858;43.076;25.626;2023-04-09T10:50:41;3.95;;;3.40;;
11604;SDS011;5858;43.076;25.626;2023-04-09T10:53:19;3.63;;;3.28;;
11604;SDS011;5858;43.076;25.626;2023-04-09T10:55:48;3.67;;;3.38;;
11604;SDS011;5858;43.076;25.626;2023-04-09T10:58:18;3.45;;;3.15;;
11604;SDS011;5858;43.076;25.626;2023-04-09T11:00:47;3.25;;;2.85;;
11604;SDS011;5858;43.076;25.626;2023-04-09T11:05:54;3.92;;;3.58;;
11604;SDS011;5858;43.076;25.626;2023-04-09T11:08:26;3.55;;;3.25;;
11604;SDS011;5858;43.076;25.626;2023-04-09T11:10:56;4.88;;;3.53;;
11604;SDS011;5858;43.076;25.626;2023-04-09T11:13:26;3.72;;;2.90;;
11604;SDS011;5858;43.076;25.626;2023-04-09T11:15:54;3.97;;;2.95;;
11604;SDS011;5858;43.076;25.626;2023-04-09T11:18:23;3.75;;;3.45;;
11604;SDS011;5858;43.076;25.626;2023-04-09T11:20:53;4.50;;;3.25;;
11604;SDS011;5858;43.076;25.626;2023-04-09T11:23:20;3.50;;;3.20;;
11604;SDS011;5858;43.076;25.626;2023-04-09T11:25:48;3.45;;;3.15;;
11604;SDS011;5858;43.076;25.626;2023-04-09T11:28:16;3.10;;;2.80;;
11604;SDS011;5858;43.076;25.626;2023-04-09T11:30:46;3.67;;;3.35;;
11604;SDS011;5858;43.076;25.626;2023-04-09T11:33:13;3.60;;;3.30;;
11604;SDS011;5858;43.076;25.626;2023-04-09T11:35:40;3.33;;;3.03;;
11604;SDS011;5858;43.076;25.626;2023-04-09T11:38:07;3.45;;;3.15;;
11604;SDS011;5858;43.076;25.626;2023-04-09T11:40:34;3.80;;;3.40;;
11604;SDS011;5858;43.076;25.626;2023-04-09T11:43:07;5.05;;;3.72;;
11604;SDS011;5858;43.076;25.626;2023-04-09T11:45:35;3.40;;;3.10;;
11604;SDS011;5858;43.076;25.626;2023-04-09T11:48:05;3.05;;;2.83;;
11604;SDS011;5858;43.076;25.626;2023-04-09T11:50:32;3.13;;;2.83;;
11604;SDS011;5858;43.076;25.626;2023-04-09T11:53:13;3.42;;;3.08;;
11604;SDS011;5858;43.076;25.626;2023-04-09T11:55:41;6.53;;;3.42;;
11604;SDS011;5858;43.076;25.626;2023-04-09T11:58:09;3.60;;;3.30;;
11604;SDS011;5858;43.076;25.626;2023-04-09T12:00:39;3.72;;;3.42;;
11604;SDS011;5858;43.076;25.626;2023-04-09T12:03:08;3.60;;;3.30;;
11604;SDS011;5858;43.076;25.626;2023-04-09T12:05:35;3.78;;;3.40;;
11604;SDS011;5858;43.076;25.626;2023-04-09T12:08:03;3.72;;;3.42;;
11604;SDS011;5858;43.076;25.626;2023-04-09T12:10:35;3.22;;;3.00;;
11604;SDS011;5858;43.076;25.626;2023-04-09T12:13:04;3.53;;;3.22;;
11604;SDS011;5858;43.076;25.626;2023-04-09T12:15:34;3.63;;;3.28;;
11604;SDS011;5858;43.076;25.626;2023-04-09T12:18:06;4.20;;;3.90;;
11604;SDS011;5858;43.076;25.626;2023-04-09T12:20:36;3.80;;;3.50;;
11604;SDS011;5858;43.076;25.626;2023-04-09T12:23:05;3.78;;;3.40;;
11604;SDS011;5858;43.076;25.626;2023-04-09T12:25:33;3.83;;;3.45;;
11604;SDS011;5858;43.076;25.626;2023-04-09T12:28:01;3.38;;;3.00;;
11604;SDS011;5858;43.076;25.626;2023-04-09T12:30:28;3.50;;;3.20;;
11604;SDS011;5858;43.076;25.626;2023-04-09T12:32:55;4.00;;;3.50;;
11604;SDS011;5858;43.076;25.626;2023-04-09T12:35:25;4.63;;;3.85;;
11604;SDS011;5858;43.076;25.626;2023-04-09T12:37:53;3.83;;;3.40;;
11604;SDS011;5858;43.076;25.626;2023-04-09T12:40:20;3.60;;;3.30;;
11604;SDS011;5858;43.076;25.626;2023-04-09T12:42:47;4.35;;;3.95;;
11604;SDS011;5858;43.076;25.626;2023-04-09T12:45:14;3.70;;;3.40;;
11604;SDS011;5858;43.076;25.626;2023-04-09T12:47:42;7.00;;;4.00;;
11604;SDS011;5858;43.076;25.626;2023-04-09T12:50:10;4.07;;;3.67;;
11604;SDS011;5858;43.076;25.626;2023-04-09T12:52:40;3.73;;;3.43;;
11604;SDS011;5858;43.076;25.626;2023-04-09T12:55:08;6.33;;;3.73;;
11604;SDS011;5858;43.076;25.626;2023-04-09T12:57:36;3.93;;;3.60;;
11604;SDS011;5858;43.076;25.626;2023-04-09T13:00:05;3.80;;;3.40;;
11604;SDS011;5858;43.076;25.626;2023-04-09T13:02:33;3.90;;;3.60;;
11604;SDS011;5858;43.076;25.626;2023-04-09T13:05:00;5.70;;;3.42;;
11604;SDS011;5858;43.076;25.626;2023-04-09T13:07:28;3.58;;;3.28;;
11604;SDS011;5858;43.076;25.626;2023-04-09T13:09:57;4.13;;;3.60;;
11604;SDS011;5858;43.076;25.626;2023-04-09T13:12:24;4.00;;;3.70;;
11604;SDS011;5858;43.076;25.626;2023-04-09T13:14:52;3.47;;;3.17;;
11604;SDS011;5858;43.076;25.626;2023-04-09T13:17:21;3.67;;;3.30;;
11604;SDS011;5858;43.076;25.626;2023-04-09T13:19:48;3.60;;;3.30;;
11604;SDS011;5858;43.076;25.626;2023-04-09T13:22:17;4.78;;;4.22;;
11604;SDS011;5858;43.076;25.626;2023-04-09T13:24:44;3.67;;;3.38;;
11604;SDS011;5858;43.076;25.626;2023-04-09T13:27:12;4.35;;;3.95;;
11604;SDS011;5858;43.076;25.626;2023-04-09T13:29:40;3.75;;;3.45;;
11604;SDS011;5858;43.076;25.626;2023-04-09T13:32:10;3.88;;;3.50;;
11604;SDS011;5858;43.076;25.626;2023-04-09T13:34:38;4.25;;;3.80;;
11604;SDS011;5858;43.076;25.626;2023-04-09T13:37:05;4.25;;;3.85;;
11604;SDS011;5858;43.076;25.626;2023-04-09T13:39:32;3.65;;;3.35;;
11604;SDS011;5858;43.076;25.626;2023-04-09T13:42:03;4.80;;;4.07;;
11604;SDS011;5858;43.076;25.626;2023-04-09T13:44:32;4.88;;;3.95;;
11604;SDS011;5858;43.076;25.626;2023-04-09T13:46:59;5.22;;;4.55;;
11604;SDS011;5858;43.076;25.626;2023-04-09T13:49:29;4.30;;;3.90;;
11604;SDS011;5858;43.076;25.626;2023-04-09T13:51:57;4.30;;;3.90;;
11604;SDS011;5858;43.076;25.626;2023-04-09T13:54:24;4.40;;;4.00;;
11604;SDS011;5858;43.076;25.626;2023-04-09T13:56:51;4.50;;;3.80;;
11604;SDS011;5858;43.076;25.626;2023-04-09T13:59:18;6.63;;;5.20;;
11604;SDS011;5858;43.076;25.626;2023-04-09T14:01:47;4.72;;;4.22;;
11604;SDS011;5858;43.076;25.626;2023-04-09T14:04:15;4.93;;;4.40;;
11604;SDS011;5858;43.076;25.626;2023-04-09T14:06:44;4.63;;;3.88;;
11604;SDS011;5858;43.076;25.626;2023-04-09T14:09:11;5.43;;;4.38;;
11604;SDS011;5858;43.076;25.626;2023-04-09T14:11:42;4.13;;;3.58;;
11604;SDS011;5858;43.076;25.626;2023-04-09T14:14:09;4.17;;;3.77;;
11604;SDS011;5858;43.076;25.626;2023-04-09T14:16:37;5.57;;;3.85;;
11604;SDS011;5858;43.076;25.626;2023-04-09T14:19:08;4.55;;;4.05;;
11604;SDS011;5858;43.076;25.626;2023-04-09T14:21:37;4.73;;;4.23;;
11604;SDS011;5858;43.076;25.626;2023-04-09T14:24:05;4.30;;;3.90;;
11604;SDS011;5858;43.076;25.626;2023-04-09T14:26:48;4.57;;;4.00;;
11604;SDS011;5858;43.076;25.626;2023-04-09T14:29:17;6.97;;;3.80;;
11604;SDS011;5858;43.076;25.626;2023-04-09T14:31:44;3.97;;;3.57;;
11604;SDS011;5858;43.076;25.626;2023-04-09T14:34:13;4.43;;;4.03;;
11604;SDS011;5858;43.076;25.626;2023-04-09T14:36:40;4.15;;;3.75;;
11604;SDS011;5858;43.076;25.626;2023-04-09T14:39:07;4.27;;;3.87;;
11604;SDS011;5858;43.076;25.626;2023-04-09T14:41:35;4.30;;;3.90;;
11604;SDS011;5858;43.076;25.626;2023-04-09T14:44:02;5.10;;;4.07;;